sensor_id;sensor_type;location;lat;lon;timestamp;P1;durP1;ratioP1;P2;durP2;ratioP2
39276;SDS011;24981;48.086;-1.686;2022-08-19T05:02:25;5.68;;;3.47;;
39276;SDS011;24981;48.086;-1.686;2022-08-19T05:04:56;4.88;;;3.22;;
39276;SDS011;24981;48.086;-1.686;2022-08-19T05:07:25;4.78;;;3.67;;
39276;SDS011;24981;48.086;-1.686;2022-08-19T05:09:52;5.10;;;3.80;;
39276;SDS011;24981;48.086;-1.686;2022-08-19T05:12:20;3.80;;;3.40;;
39276;SDS011;24981;48.086;-1.686;2022-08-19T05:14:47;4.65;;;3.83;;
39276;SDS011;24981;48.086;-1.686;2022-08-19T05:17:14;6.80;;;3.60;;
39276;SDS011;24981;48.086;-1.686;2022-08-19T05:19:43;6.20;;;4.10;;
39276;SDS011;24981;48.086;-1.686;2022-08-19T05:22:27;5.43;;;3.50;;
39276;SDS011;24981;48.086;-1.686;2022-08-19T05:25:01;5.55;;;3.90;;
39276;SDS011;24981;48.086;-1.686;2022-08-19T05:27:31;5.70;;;3.70;;
39276;SDS011;24981;48.086;-1.686;2022-08-19T05:29:58;4.75;;;3.47;;
39276;SDS011;24981;48.086;-1.686;2022-08-19T05:32:26;5.00;;;3.35;;
39276;SDS011;24981;48.086;-1.686;2022-08-19T05:34:54;5.25;;;2.90;;
39276;SDS011;24981;48.086;-1.686;2022-08-19T05:37:21;6.25;;;3.20;;
39276;SDS011;24981;48.086;-1.686;2022-08-19T05:39:51;4.57;;;3.33;;
39276;SDS011;24981;48.086;-1.686;2022-08-19T05:42:19;5.82;;;3.53;;
39276;SDS011;24981;48.086;-1.686;2022-08-19T05:44:48;6.35;;;3.83;;
39276;SDS011;24981;48.086;-1.686;2022-08-19T05:47:15;4.38;;;3.00;;
39276;SDS011;24981;48.086;-1.686;2022-08-19T05:49:44;6.05;;;3.72;;
39276;SDS011;24981;48.086;-1.686;2022-08-19T05:52:13;6.32;;;3.53;;
39276;SDS011;24981;48.086;-1.686;2022-08-19T05:54:42;8.68;;;3.58;;
39276;SDS011;24981;48.086;-1.686;2022-08-19T05:57:12;6.78;;;3.33;;
39276;SDS011;24981;48.086;-1.686;2022-08-19T05:59:40;4.07;;;3.53;;
39276;SDS011;24981;48.086;-1.686;2022-08-19T06:02:07;6.97;;;3.97;;
39276;SDS011;24981;48.086;-1.686;2022-08-19T06:04:34;4.88;;;3.80;;
39276;SDS011;24981;48.086;-1.686;2022-08-19T06:07:01;3.95;;;3.22;;
39276;SDS011;24981;48.086;-1.686;2022-08-19T06:09:29;5.82;;;4.00;;
39276;SDS011;24981;48.086;-1.686;2022-08-19T06:11:57;4.88;;;3.60;;
39276;SDS011;24981;48.086;-1.686;2022-08-19T06:14:26;5.93;;;3.70;;
39276;SDS011;24981;48.086;-1.686;2022-08-19T06:16:54;6.63;;;3.90;;
39276;SDS011;24981;48.086;-1.686;2022-08-19T06:19:21;8.18;;;3.95;;
39276;SDS011;24981;48.086;-1.686;2022-08-19T06:21:50;6.43;;;4.15;;
39276;SDS011;24981;48.086;-1.686;2022-08-19T06:24:18;6.10;;;4.15;;
39276;SDS011;24981;48.086;-1.686;2022-08-19T06:26:50;5.60;;;3.80;;
39276;SDS011;24981;48.086;-1.686;2022-08-19T06:29:20;6.93;;;3.72;;
39276;SDS011;24981;48.086;-1.686;2022-08-19T06:31:49;10.45;;;4.22;;
39276;SDS011;24981;48.086;-1.686;2022-08-19T06:34:18;8.77;;;3.90;;
39276;SDS011;24981;48.086;-1.686;2022-08-19T06:36:46;6.47;;;4.05;;
39276;SDS011;24981;48.086;-1.686;2022-08-19T06:39:17;6.85;;;4.65;;
39276;SDS011;24981;48.086;-1.686;2022-08-19T06:41:48;6.05;;;3.90;;
39276;SDS011;24981;48.086;-1.686;2022-08-19T06:44:18;9.95;;;4.30;;
39276;SDS011;24981;48.086;-1.686;2022-08-19T06:46:46;8.07;;;4.03;;
39276;SDS011;24981;48.086;-1.686;2022-08-19T06:49:14;10.07;;;4.28;;
39276;SDS011;24981;48.086;-1.686;2022-08-19T06:51:41;8.13;;;4.63;;
39276;SDS011;24981;48.086;-1.686;2022-08-19T06:54:09;5.82;;;4.47;;
39276;SDS011;24981;48.086;-1.686;2022-08-19T06:56:37;5.28;;;4.00;;
39276;SDS011;24981;48.086;-1.686;2022-08-19T06:59:06;8.80;;;4.80;;
39276;SDS011;24981;48.086;-1.686;2022-08-19T07:01:35;6.13;;;4.30;;
39276;SDS011;24981;48.086;-1.686;2022-08-19T07:04:03;9.50;;;4.60;;
39276;SDS011;24981;48.086;-1.686;2022-08-19T07:06:31;6.50;;;4.38;;
39276;SDS011;24981;48.086;-1.686;2022-08-19T07:08:58;6.80;;;4.30;;
39276;SDS011;24981;48.086;-1.686;2022-08-19T07:11:25;6.85;;;4.63;;
39276;SDS011;24981;48.086;-1.686;2022-08-19T07:13:53;10.02;;;4.82;;
39276;SDS011;24981;48.086;-1.686;2022-08-19T07:16:21;7.93;;;4.40;;
39276;SDS011;24981;48.086;-1.686;2022-08-19T07:18:49;6.70;;;4.43;;
39276;SDS011;24981;48.086;-1.686;2022-08-19T07:21:19;10.38;;;4.50;;
39276;SDS011;24981;48.086;-1.686;2022-08-19T07:23:47;8.98;;;5.28;;
39276;SDS011;24981;48.086;-1.686;2022-08-19T07:26:15;7.30;;;4.45;;
39276;SDS011;24981;48.086;-1.686;2022-08-19T07:28:44;7.70;;;4.43;;
39276;SDS011;24981;48.086;-1.686;2022-08-19T07:31:13;8.38;;;4.93;;
39276;SDS011;24981;48.086;-1.686;2022-08-19T07:33:44;9.98;;;5.45;;
39276;SDS011;24981;48.086;-1.686;2022-08-19T07:36:13;8.15;;;4.55;;
39276;SDS011;24981;48.086;-1.686;2022-08-19T07:38:43;6.55;;;4.47;;
39276;SDS011;24981;48.086;-1.686;2022-08-19T07:41:18;7.65;;;4.75;;
39276;SDS011;24981;48.086;-1.686;2022-08-19T07:43:47;8.90;;;5.47;;
39276;SDS011;24981;48.086;-1.686;2022-08-19T07:46:15;9.52;;;4.88;;
39276;SDS011;24981;48.086;-1.686;2022-08-19T07:48:47;9.52;;;5.22;;
39276;SDS011;24981;48.086;-1.686;2022-08-19T07:51:16;12.35;;;5.18;;
39276;SDS011;24981;48.086;-1.686;2022-08-19T07:53:46;8.40;;;4.47;;
39276;SDS011;24981;48.086;-1.686;2022-08-19T07:56:15;7.20;;;4.07;;
39276;SDS011;24981;48.086;-1.686;2022-08-19T07:58:43;8.30;;;4.47;;
39276;SDS011;24981;48.086;-1.686;2022-08-19T08:01:12;10.43;;;5.10;;
39276;SDS011;24981;48.086;-1.686;2022-08-19T08:03:40;18.38;;;5.10;;
39276;SDS011;24981;48.086;-1.686;2022-08-19T08:06:26;6.85;;;4.30;;
39276;SDS011;24981;48.086;-1.686;2022-08-19T08:09:11;7.65;;;4.38;;
39276;SDS011;24981;48.086;-1.686;2022-08-19T08:11:46;10.88;;;4.88;;
39276;SDS011;24981;48.086;-1.686;2022-08-19T08:14:15;7.28;;;4.10;;
39276;SDS011;24981;48.086;-1.686;2022-08-19T08:16:43;11.45;;;4.35;;
39276;SDS011;24981;48.086;-1.686;2022-08-19T08:19:11;9.68;;;4.38;;
39276;SDS011;24981;48.086;-1.686;2022-08-19T08:21:41;12.45;;;4.72;;
39276;SDS011;24981;48.086;-1.686;2022-08-19T08:24:08;10.25;;;4.70;;
39276;SDS011;24981;48.086;-1.686;2022-08-19T08:26:36;10.15;;;4.20;;
39276;SDS011;24981;48.086;-1.686;2022-08-19T08:29:03;9.63;;;4.03;;
39276;SDS011;24981;48.086;-1.686;2022-08-19T08:31:32;13.43;;;4.70;;
39276;SDS011;24981;48.086;-1.686;2022-08-19T08:33:59;7.72;;;4.00;;
39276;SDS011;24981;48.086;-1.686;2022-08-19T08:36:26;8.10;;;4.72;;
39276;SDS011;24981;48.086;-1.686;2022-08-19T08:38:55;7.28;;;3.67;;
39276;SDS011;24981;48.086;-1.686;2022-08-19T08:41:30;9.05;;;3.58;;
39276;SDS011;24981;48.086;-1.686;2022-08-19T08:44:03;6.30;;;3.90;;
39276;SDS011;24981;48.086;-1.686;2022-08-19T08:46:34;7.53;;;3.65;;
39276;SDS011;24981;48.086;-1.686;2022-08-19T08:49:06;5.72;;;3.72;;
39276;SDS011;24981;48.086;-1.686;2022-08-19T08:51:47;7.33;;;3.60;;
39276;SDS011;24981;48.086;-1.686;2022-08-19T08:54:20;5.75;;;3.95;;
39276;SDS011;24981;48.086;-1.686;2022-08-19T08:56:54;6.80;;;3.45;;
39276;SDS011;24981;48.086;-1.686;2022-08-19T08:59:30;7.63;;;3.95;;
39276;SDS011;24981;48.086;-1.686;2022-08-19T09:02:00;6.88;;;4.15;;
39276;SDS011;24981;48.086;-1.686;2022-08-19T09:04:27;10.25;;;4.30;;
39276;SDS011;24981;48.086;-1.686;2022-08-19T09:07:09;8.75;;;4.13;;
39276;SDS011;24981;48.086;-1.686;2022-08-19T09:09:45;10.45;;;3.35;;
39276;SDS011;24981;48.086;-1.686;2022-08-19T09:12:16;8.35;;;3.22;;
39276;SDS011;24981;48.086;-1.686;2022-08-19T09:14:52;7.10;;;3.55;;
39276;SDS011;24981;48.086;-1.686;2022-08-19T09:17:23;5.97;;;3.13;;
39276;SDS011;24981;48.086;-1.686;2022-08-19T09:19:56;11.63;;;3.30;;
39276;SDS011;24981;48.086;-1.686;2022-08-19T09:22:25;7.15;;;3.60;;
39276;SDS011;24981;48.086;-1.686;2022-08-19T09:24:54;5.85;;;3.45;;
39276;SDS011;24981;48.086;-1.686;2022-08-19T09:27:22;6.43;;;3.15;;
39276;SDS011;24981;48.086;-1.686;2022-08-19T09:29:50;7.72;;;3.47;;
39276;SDS011;24981;48.086;-1.686;2022-08-19T09:32:18;6.72;;;3.08;;
39276;SDS011;24981;48.086;-1.686;2022-08-19T09:34:46;6.55;;;3.40;;
39276;SDS011;24981;48.086;-1.686;2022-08-19T09:37:13;8.18;;;3.72;;
39276;SDS011;24981;48.086;-1.686;2022-08-19T09:39:40;4.60;;;2.83;;
39276;SDS011;24981;48.086;-1.686;2022-08-19T09:42:09;7.28;;;3.92;;
39276;SDS011;24981;48.086;-1.686;2022-08-19T09:44:39;5.60;;;3.05;;
39276;SDS011;24981;48.086;-1.686;2022-08-19T09:47:06;6.15;;;3.33;;
39276;SDS011;24981;48.086;-1.686;2022-08-19T09:49:34;4.47;;;2.88;;
39276;SDS011;24981;48.086;-1.686;2022-08-19T09:52:03;7.50;;;2.90;;
39276;SDS011;24981;48.086;-1.686;2022-08-19T09:54:30;10.75;;;3.08;;
39276;SDS011;24981;48.086;-1.686;2022-08-19T09:56:57;8.48;;;2.53;;
39276;SDS011;24981;48.086;-1.686;2022-08-19T09:59:26;6.13;;;3.05;;
39276;SDS011;24981;48.086;-1.686;2022-08-19T10:01:54;5.82;;;2.53;;
39276;SDS011;24981;48.086;-1.686;2022-08-19T10:04:21;7.20;;;2.60;;
39276;SDS011;24981;48.086;-1.686;2022-08-19T10:07:08;6.07;;;2.80;;
39276;SDS011;24981;48.086;-1.686;2022-08-19T10:09:36;4.78;;;2.42;;
39276;SDS011;24981;48.086;-1.686;2022-08-19T10:12:03;7.07;;;2.70;;
39276;SDS011;24981;48.086;-1.686;2022-08-19T10:14:32;6.80;;;2.53;;
39276;SDS011;24981;48.086;-1.686;2022-08-19T10:17:00;2.35;;;1.65;;
39276;SDS011;24981;48.086;-1.686;2022-08-19T10:19:28;5.50;;;1.90;;
39276;SDS011;24981;48.086;-1.686;2022-08-19T10:22:02;4.30;;;2.10;;
39276;SDS011;24981;48.086;-1.686;2022-08-19T10:24:30;5.82;;;2.03;;
39276;SDS011;24981;48.086;-1.686;2022-08-19T10:26:57;8.57;;;2.47;;
39276;SDS011;24981;48.086;-1.686;2022-08-19T10:29:24;3.55;;;1.90;;
39276;SDS011;24981;48.086;-1.686;2022-08-19T10:31:54;6.18;;;1.70;;
39276;SDS011;24981;48.086;-1.686;2022-08-19T10:34:21;5.28;;;1.80;;
39276;SDS011;24981;48.086;-1.686;2022-08-19T10:36:49;5.63;;;1.80;;
39276;SDS011;24981;48.086;-1.686;2022-08-19T10:39:16;5.22;;;1.90;;
39276;SDS011;24981;48.086;-1.686;2022-08-19T10:41:43;4.00;;;1.52;;
39276;SDS011;24981;48.086;-1.686;2022-08-19T10:44:11;5.60;;;2.00;;
39276;SDS011;24981;48.086;-1.686;2022-08-19T10:46:39;4.18;;;2.20;;
39276;SDS011;24981;48.086;-1.686;2022-08-19T10:49:11;5.40;;;2.13;;
39276;SDS011;24981;48.086;-1.686;2022-08-19T10:51:38;4.45;;;2.20;;
39276;SDS011;24981;48.086;-1.686;2022-08-19T10:54:23;2.78;;;2.20;;
39276;SDS011;24981;48.086;-1.686;2022-08-19T10:57:10;4.88;;;2.00;;
39276;SDS011;24981;48.086;-1.686;2022-08-19T10:59:36;4.40;;;2.05;;
39276;SDS011;24981;48.086;-1.686;2022-08-19T11:02:04;4.63;;;2.17;;
39276;SDS011;24981;48.086;-1.686;2022-08-19T11:04:36;7.13;;;2.15;;
39276;SDS011;24981;48.086;-1.686;2022-08-19T11:07:04;4.18;;;2.00;;
39276;SDS011;24981;48.086;-1.686;2022-08-19T11:09:36;3.42;;;1.90;;
39276;SDS011;24981;48.086;-1.686;2022-08-19T11:12:05;3.08;;;1.85;;
39276;SDS011;24981;48.086;-1.686;2022-08-19T11:14:33;5.47;;;2.10;;
39276;SDS011;24981;48.086;-1.686;2022-08-19T11:17:00;6.82;;;2.10;;
39276;SDS011;24981;48.086;-1.686;2022-08-19T11:19:28;5.13;;;1.75;;
39276;SDS011;24981;48.086;-1.686;2022-08-19T11:21:56;3.97;;;1.88;;
39276;SDS011;24981;48.086;-1.686;2022-08-19T11:24:27;4.68;;;2.08;;
39276;SDS011;24981;48.086;-1.686;2022-08-19T11:26:54;7.97;;;2.08;;
39276;SDS011;24981;48.086;-1.686;2022-08-19T11:29:29;6.07;;;2.05;;
39276;SDS011;24981;48.086;-1.686;2022-08-19T11:31:56;2.63;;;1.70;;
39276;SDS011;24981;48.086;-1.686;2022-08-19T11:34:25;3.75;;;2.60;;
39276;SDS011;24981;48.086;-1.686;2022-08-19T11:36:54;4.65;;;2.00;;
39276;SDS011;24981;48.086;-1.686;2022-08-19T11:39:25;4.80;;;1.83;;
39276;SDS011;24981;48.086;-1.686;2022-08-19T11:41:54;5.57;;;1.63;;
39276;SDS011;24981;48.086;-1.686;2022-08-19T11:44:21;2.45;;;1.27;;
39276;SDS011;24981;48.086;-1.686;2022-08-19T11:46:48;3.25;;;1.30;;
39276;SDS011;24981;48.086;-1.686;2022-08-19T11:49:17;3.20;;;1.45;;
39276;SDS011;24981;48.086;-1.686;2022-08-19T11:51:46;2.75;;;1.30;;
39276;SDS011;24981;48.086;-1.686;2022-08-19T11:54:15;2.30;;;1.00;;
39276;SDS011;24981;48.086;-1.686;2022-08-19T11:56:43;3.45;;;1.30;;
39276;SDS011;24981;48.086;-1.686;2022-08-19T11:59:12;2.90;;;1.33;;
39276;SDS011;24981;48.086;-1.686;2022-08-19T12:01:39;4.78;;;1.10;;
39276;SDS011;24981;48.086;-1.686;2022-08-19T12:04:07;2.88;;;1.23;;
39276;SDS011;24981;48.086;-1.686;2022-08-19T12:06:37;5.55;;;1.42;;
39276;SDS011;24981;48.086;-1.686;2022-08-19T12:09:06;5.35;;;1.30;;
39276;SDS011;24981;48.086;-1.686;2022-08-19T12:11:35;8.95;;;1.45;;
39276;SDS011;24981;48.086;-1.686;2022-08-19T12:14:04;6.13;;;1.75;;
39276;SDS011;24981;48.086;-1.686;2022-08-19T12:16:31;8.88;;;1.60;;
39276;SDS011;24981;48.086;-1.686;2022-08-19T12:18:59;3.72;;;1.65;;
39276;SDS011;24981;48.086;-1.686;2022-08-19T12:21:29;3.22;;;1.48;;
39276;SDS011;24981;48.086;-1.686;2022-08-19T12:23:58;8.50;;;2.30;;
39276;SDS011;24981;48.086;-1.686;2022-08-19T12:26:27;7.32;;;2.50;;
39276;SDS011;24981;48.086;-1.686;2022-08-19T12:28:56;5.50;;;1.92;;
39276;SDS011;24981;48.086;-1.686;2022-08-19T12:31:26;2.53;;;1.50;;
39276;SDS011;24981;48.086;-1.686;2022-08-19T12:33:54;2.78;;;1.70;;
39276;SDS011;24981;48.086;-1.686;2022-08-19T12:36:21;5.18;;;2.03;;
39276;SDS011;24981;48.086;-1.686;2022-08-19T12:38:49;5.95;;;1.98;;
39276;SDS011;24981;48.086;-1.686;2022-08-19T12:41:17;8.13;;;2.10;;
39276;SDS011;24981;48.086;-1.686;2022-08-19T12:43:47;4.40;;;2.00;;
39276;SDS011;24981;48.086;-1.686;2022-08-19T12:46:16;5.78;;;1.77;;
39276;SDS011;24981;48.086;-1.686;2022-08-19T12:48:45;4.47;;;2.08;;
39276;SDS011;24981;48.086;-1.686;2022-08-19T12:51:14;5.63;;;1.88;;
39276;SDS011;24981;48.086;-1.686;2022-08-19T12:53:44;4.68;;;1.67;;
39276;SDS011;24981;48.086;-1.686;2022-08-19T12:56:12;8.38;;;2.10;;
39276;SDS011;24981;48.086;-1.686;2022-08-19T12:58:40;4.22;;;1.70;;
39276;SDS011;24981;48.086;-1.686;2022-08-19T13:01:08;7.55;;;2.08;;
39276;SDS011;24981;48.086;-1.686;2022-08-19T13:03:36;7.70;;;2.28;;
39276;SDS011;24981;48.086;-1.686;2022-08-19T13:06:06;4.45;;;2.20;;
39276;SDS011;24981;48.086;-1.686;2022-08-19T13:08:33;3.88;;;1.70;;
39276;SDS011;24981;48.086;-1.686;2022-08-19T13:11:06;3.22;;;2.00;;
39276;SDS011;24981;48.086;-1.686;2022-08-19T13:13:35;4.43;;;1.63;;
39276;SDS011;24981;48.086;-1.686;2022-08-19T13:16:06;2.63;;;1.40;;
39276;SDS011;24981;48.086;-1.686;2022-08-19T13:18:34;4.65;;;1.75;;
39276;SDS011;24981;48.086;-1.686;2022-08-19T13:21:02;4.60;;;1.65;;
39276;SDS011;24981;48.086;-1.686;2022-08-19T13:23:31;2.55;;;1.50;;
39276;SDS011;24981;48.086;-1.686;2022-08-19T13:25:58;4.32;;;1.83;;
39276;SDS011;24981;48.086;-1.686;2022-08-19T13:28:27;2.58;;;1.52;;
39276;SDS011;24981;48.086;-1.686;2022-08-19T13:31:14;2.80;;;1.70;;
39276;SDS011;24981;48.086;-1.686;2022-08-19T13:33:59;4.00;;;1.58;;
39276;SDS011;24981;48.086;-1.686;2022-08-19T13:36:26;5.15;;;1.50;;
39276;SDS011;24981;48.086;-1.686;2022-08-19T13:38:54;5.93;;;1.35;;
39276;SDS011;24981;48.086;-1.686;2022-08-19T13:41:21;4.60;;;1.40;;
39276;SDS011;24981;48.086;-1.686;2022-08-19T13:43:48;2.42;;;1.23;;
39276;SDS011;24981;48.086;-1.686;2022-08-19T13:46:15;3.00;;;1.40;;
39276;SDS011;24981;48.086;-1.686;2022-08-19T13:48:42;3.53;;;1.40;;
39276;SDS011;24981;48.086;-1.686;2022-08-19T13:51:09;3.28;;;1.40;;
39276;SDS011;24981;48.086;-1.686;2022-08-19T13:53:36;4.22;;;1.17;;
39276;SDS011;24981;48.086;-1.686;2022-08-19T13:56:06;5.70;;;1.52;;
39276;SDS011;24981;48.086;-1.686;2022-08-19T14:01:02;5.03;;;1.50;;
39276;SDS011;24981;48.086;-1.686;2022-08-19T14:03:31;3.55;;;1.45;;
39276;SDS011;24981;48.086;-1.686;2022-08-19T14:05:59;4.13;;;1.45;;
39276;SDS011;24981;48.086;-1.686;2022-08-19T14:08:26;5.82;;;1.17;;
39276;SDS011;24981;48.086;-1.686;2022-08-19T14:10:54;1.23;;;1.02;;
39276;SDS011;24981;48.086;-1.686;2022-08-19T14:13:22;4.45;;;0.70;;
39276;SDS011;24981;48.086;-1.686;2022-08-19T14:15:50;1.38;;;0.47;;
39276;SDS011;24981;48.086;-1.686;2022-08-19T14:18:18;1.45;;;0.40;;
39276;SDS011;24981;48.086;-1.686;2022-08-19T14:20:45;2.05;;;0.50;;
39276;SDS011;24981;48.086;-1.686;2022-08-19T14:23:12;2.70;;;0.80;;
39276;SDS011;24981;48.086;-1.686;2022-08-19T14:25:39;0.60;;;0.32;;
39276;SDS011;24981;48.086;-1.686;2022-08-19T14:28:06;0.45;;;0.45;;
39276;SDS011;24981;48.086;-1.686;2022-08-19T14:30:35;0.75;;;0.30;;
39276;SDS011;24981;48.086;-1.686;2022-08-19T14:33:03;0.40;;;0.40;;
39276;SDS011;24981;48.086;-1.686;2022-08-19T14:35:32;5.38;;;0.70;;
39276;SDS011;24981;48.086;-1.686;2022-08-19T14:38:00;1.38;;;0.40;;
39276;SDS011;24981;48.086;-1.686;2022-08-19T14:40:28;0.30;;;0.30;;
39276;SDS011;24981;48.086;-1.686;2022-08-19T14:42:57;1.45;;;0.50;;
39276;SDS011;24981;48.086;-1.686;2022-08-19T14:45:29;2.50;;;0.50;;
39276;SDS011;24981;48.086;-1.686;2022-08-19T14:47:58;1.35;;;0.25;;
39276;SDS011;24981;48.086;-1.686;2022-08-19T14:50:26;3.03;;;0.50;;
39276;SDS011;24981;48.086;-1.686;2022-08-19T14:52:57;3.80;;;0.38;;
39276;SDS011;24981;48.086;-1.686;2022-08-19T14:55:25;1.55;;;0.65;;
39276;SDS011;24981;48.086;-1.686;2022-08-19T14:57:53;2.42;;;0.52;;
39276;SDS011;24981;48.086;-1.686;2022-08-19T15:00:20;2.55;;;0.52;;
39276;SDS011;24981;48.086;-1.686;2022-08-19T15:02:48;2.60;;;0.47;;
39276;SDS011;24981;48.086;-1.686;2022-08-19T15:05:16;0.40;;;0.40;;
39276;SDS011;24981;48.086;-1.686;2022-08-19T15:07:43;3.35;;;0.45;;
39276;SDS011;24981;48.086;-1.686;2022-08-19T15:10:11;0.40;;;0.40;;
39276;SDS011;24981;48.086;-1.686;2022-08-19T15:12:39;0.50;;;0.50;;
39276;SDS011;24981;48.086;-1.686;2022-08-19T15:15:08;0.60;;;0.55;;
39276;SDS011;24981;48.086;-1.686;2022-08-19T15:17:37;1.10;;;0.70;;
39276;SDS011;24981;48.086;-1.686;2022-08-19T15:20:05;0.73;;;0.70;;
39276;SDS011;24981;48.086;-1.686;2022-08-19T15:22:35;2.75;;;0.80;;
39276;SDS011;24981;48.086;-1.686;2022-08-19T15:25:03;2.05;;;0.70;;
39276;SDS011;24981;48.086;-1.686;2022-08-19T15:27:32;1.23;;;0.75;;
39276;SDS011;24981;48.086;-1.686;2022-08-19T15:30:00;1.98;;;1.02;;
39276;SDS011;24981;48.086;-1.686;2022-08-19T15:32:27;1.88;;;0.80;;
39276;SDS011;24981;48.086;-1.686;2022-08-19T15:34:56;4.15;;;1.08;;
39276;SDS011;24981;48.086;-1.686;2022-08-19T15:37:23;1.95;;;1.25;;
39276;SDS011;24981;48.086;-1.686;2022-08-19T15:39:51;2.10;;;0.93;;
39276;SDS011;24981;48.086;-1.686;2022-08-19T15:42:18;1.23;;;1.05;;
39276;SDS011;24981;48.086;-1.686;2022-08-19T15:44:45;3.28;;;1.30;;
39276;SDS011;24981;48.086;-1.686;2022-08-19T15:47:13;3.65;;;1.25;;
39276;SDS011;24981;48.086;-1.686;2022-08-19T15:49:40;4.65;;;1.60;;
39276;SDS011;24981;48.086;-1.686;2022-08-19T15:52:07;5.25;;;1.65;;
39276;SDS011;24981;48.086;-1.686;2022-08-19T15:54:34;4.50;;;1.30;;
39276;SDS011;24981;48.086;-1.686;2022-08-19T15:57:02;14.52;;;1.55;;
39276;SDS011;24981;48.086;-1.686;2022-08-19T15:59:47;6.45;;;1.63;;
39276;SDS011;24981;48.086;-1.686;2022-08-19T16:02:46;11.23;;;2.03;;
39276;SDS011;24981;48.086;-1.686;2022-08-19T16:05:31;8.75;;;2.00;;
39276;SDS011;24981;48.086;-1.686;2022-08-19T16:08:15;6.30;;;1.65;;
39276;SDS011;24981;48.086;-1.686;2022-08-19T16:10:42;4.32;;;1.80;;
39276;SDS011;24981;48.086;-1.686;2022-08-19T16:13:10;10.75;;;2.60;;
39276;SDS011;24981;48.086;-1.686;2022-08-19T16:15:37;6.03;;;1.67;;
39276;SDS011;24981;48.086;-1.686;2022-08-19T16:18:08;7.57;;;2.15;;
39276;SDS011;24981;48.086;-1.686;2022-08-19T16:20:35;8.40;;;2.47;;
39276;SDS011;24981;48.086;-1.686;2022-08-19T16:23:02;11.43;;;2.70;;
39276;SDS011;24981;48.086;-1.686;2022-08-19T16:25:29;6.07;;;2.65;;
39276;SDS011;24981;48.086;-1.686;2022-08-19T16:27:57;8.52;;;2.40;;
39276;SDS011;24981;48.086;-1.686;2022-08-19T16:30:26;9.80;;;2.72;;
39276;SDS011;24981;48.086;-1.686;2022-08-19T16:32:53;8.98;;;2.30;;
39276;SDS011;24981;48.086;-1.686;2022-08-19T16:35:20;7.47;;;2.00;;
39276;SDS011;24981;48.086;-1.686;2022-08-19T16:37:47;8.60;;;2.20;;
39276;SDS011;24981;48.086;-1.686;2022-08-19T16:40:14;7.00;;;2.00;;
39276;SDS011;24981;48.086;-1.686;2022-08-19T16:42:41;9.98;;;2.40;;
39276;SDS011;24981;48.086;-1.686;2022-08-19T16:45:09;2.75;;;1.55;;
39276;SDS011;24981;48.086;-1.686;2022-08-19T16:47:37;8.43;;;2.03;;
39276;SDS011;24981;48.086;-1.686;2022-08-19T16:50:05;6.68;;;2.00;;
39276;SDS011;24981;48.086;-1.686;2022-08-19T16:52:32;7.35;;;2.65;;
39276;SDS011;24981;48.086;-1.686;2022-08-19T16:55:00;7.38;;;2.25;;
39276;SDS011;24981;48.086;-1.686;2022-08-19T16:57:27;9.55;;;2.88;;
39276;SDS011;24981;48.086;-1.686;2022-08-19T16:59:56;11.93;;;2.53;;
39276;SDS011;24981;48.086;-1.686;2022-08-19T17:02:23;9.88;;;2.47;;
39276;SDS011;24981;48.086;-1.686;2022-08-19T17:04:52;7.50;;;2.80;;
39276;SDS011;24981;48.086;-1.686;2022-08-19T17:07:19;8.70;;;2.90;;
39276;SDS011;24981;48.086;-1.686;2022-08-19T17:09:46;14.48;;;2.83;;
39276;SDS011;24981;48.086;-1.686;2022-08-19T17:12:14;13.88;;;3.53;;
39276;SDS011;24981;48.086;-1.686;2022-08-19T17:14:41;16.35;;;2.80;;
39276;SDS011;24981;48.086;-1.686;2022-08-19T17:17:10;12.38;;;2.78;;
39276;SDS011;24981;48.086;-1.686;2022-08-19T17:19:37;10.38;;;2.55;;
39276;SDS011;24981;48.086;-1.686;2022-08-19T17:22:07;7.95;;;2.40;;
39276;SDS011;24981;48.086;-1.686;2022-08-19T17:24:34;12.48;;;3.15;;
39276;SDS011;24981;48.086;-1.686;2022-08-19T17:27:02;11.30;;;2.10;;
39276;SDS011;24981;48.086;-1.686;2022-08-19T17:29:29;15.10;;;3.00;;
39276;SDS011;24981;48.086;-1.686;2022-08-19T17:31:56;11.65;;;2.60;;
39276;SDS011;24981;48.086;-1.686;2022-08-19T17:34:23;7.88;;;2.25;;
39276;SDS011;24981;48.086;-1.686;2022-08-19T17:36:52;10.05;;;2.50;;
39276;SDS011;24981;48.086;-1.686;2022-08-19T17:39:22;14.80;;;2.78;;
39276;SDS011;24981;48.086;-1.686;2022-08-19T17:41:49;11.98;;;3.03;;
39276;SDS011;24981;48.086;-1.686;2022-08-19T17:44:17;12.13;;;2.33;;
39276;SDS011;24981;48.086;-1.686;2022-08-19T17:46:44;8.70;;;2.40;;
39276;SDS011;24981;48.086;-1.686;2022-08-19T17:49:12;10.00;;;2.35;;
39276;SDS011;24981;48.086;-1.686;2022-08-19T17:51:40;6.38;;;1.90;;
39276;SDS011;24981;48.086;-1.686;2022-08-19T17:54:11;14.55;;;2.83;;
39276;SDS011;24981;48.086;-1.686;2022-08-19T17:56:42;11.75;;;2.42;;
39276;SDS011;24981;48.086;-1.686;2022-08-19T17:59:10;6.75;;;2.25;;
39276;SDS011;24981;48.086;-1.686;2022-08-19T18:01:37;8.35;;;1.98;;
39276;SDS011;24981;48.086;-1.686;2022-08-19T18:04:04;7.80;;;1.90;;
39276;SDS011;24981;48.086;-1.686;2022-08-19T18:06:32;8.63;;;2.28;;
39276;SDS011;24981;48.086;-1.686;2022-08-19T18:09:00;6.18;;;2.35;;
39276;SDS011;24981;48.086;-1.686;2022-08-19T18:11:28;10.00;;;2.63;;
39276;SDS011;24981;48.086;-1.686;2022-08-19T18:13:56;12.95;;;3.13;;
39276;SDS011;24981;48.086;-1.686;2022-08-19T18:16:23;4.32;;;2.22;;
39276;SDS011;24981;48.086;-1.686;2022-08-19T18:18:50;10.27;;;2.30;;
39276;SDS011;24981;48.086;-1.686;2022-08-19T18:21:18;11.68;;;2.28;;
39276;SDS011;24981;48.086;-1.686;2022-08-19T18:23:46;7.20;;;2.20;;
39276;SDS011;24981;48.086;-1.686;2022-08-19T18:26:13;6.93;;;2.10;;
39276;SDS011;24981;48.086;-1.686;2022-08-19T18:28:41;8.13;;;2.33;;
39276;SDS011;24981;48.086;-1.686;2022-08-19T18:31:09;11.20;;;2.45;;
39276;SDS011;24981;48.086;-1.686;2022-08-19T18:33:36;5.20;;;2.25;;
39276;SDS011;24981;48.086;-1.686;2022-08-19T18:36:03;14.10;;;2.72;;
39276;SDS011;24981;48.086;-1.686;2022-08-19T18:38:30;5.38;;;1.80;;
39276;SDS011;24981;48.086;-1.686;2022-08-19T18:41:15;9.15;;;2.65;;
39276;SDS011;24981;48.086;-1.686;2022-08-19T18:43:59;11.90;;;2.88;;
39276;SDS011;24981;48.086;-1.686;2022-08-19T18:46:44;10.02;;;2.83;;
39276;SDS011;24981;48.086;-1.686;2022-08-19T18:49:29;10.65;;;2.83;;
39276;SDS011;24981;48.086;-1.686;2022-08-19T18:51:58;10.63;;;2.60;;
39276;SDS011;24981;48.086;-1.686;2022-08-19T18:54:27;11.38;;;2.40;;
39276;SDS011;24981;48.086;-1.686;2022-08-19T18:56:55;6.18;;;2.63;;
39276;SDS011;24981;48.086;-1.686;2022-08-19T18:59:22;12.13;;;2.90;;
39276;SDS011;24981;48.086;-1.686;2022-08-19T19:01:52;6.05;;;2.28;;
39276;SDS011;24981;48.086;-1.686;2022-08-19T19:04:21;10.25;;;2.17;;
39276;SDS011;24981;48.086;-1.686;2022-08-19T19:06:50;5.28;;;2.08;;
39276;SDS011;24981;48.086;-1.686;2022-08-19T19:09:19;7.38;;;2.35;;
39276;SDS011;24981;48.086;-1.686;2022-08-19T19:11:49;6.10;;;2.58;;
39276;SDS011;24981;48.086;-1.686;2022-08-19T19:14:19;7.60;;;2.42;;
39276;SDS011;24981;48.086;-1.686;2022-08-19T19:19:17;12.02;;;2.70;;
39276;SDS011;24981;48.086;-1.686;2022-08-19T19:21:45;8.50;;;2.70;;
39276;SDS011;24981;48.086;-1.686;2022-08-19T19:24:14;8.02;;;2.60;;
39276;SDS011;24981;48.086;-1.686;2022-08-19T19:26:44;7.13;;;2.27;;
39276;SDS011;24981;48.086;-1.686;2022-08-19T19:29:11;11.68;;;3.33;;
39276;SDS011;24981;48.086;-1.686;2022-08-19T19:31:39;9.48;;;2.67;;
39276;SDS011;24981;48.086;-1.686;2022-08-19T19:34:07;8.32;;;2.47;;
39276;SDS011;24981;48.086;-1.686;2022-08-19T19:36:36;8.05;;;3.25;;
39276;SDS011;24981;48.086;-1.686;2022-08-19T19:39:04;11.90;;;2.45;;
39276;SDS011;24981;48.086;-1.686;2022-08-19T19:41:31;10.60;;;2.40;;
39276;SDS011;24981;48.086;-1.686;2022-08-19T19:43:59;6.32;;;2.65;;
39276;SDS011;24981;48.086;-1.686;2022-08-19T19:46:27;9.27;;;3.20;;
39276;SDS011;24981;48.086;-1.686;2022-08-19T19:48:54;11.60;;;3.15;;
39276;SDS011;24981;48.086;-1.686;2022-08-19T19:51:22;9.63;;;2.88;;